Detall de PIREP

Printer-friendly versionPDF version

[2014/04/14 09:50:00]
Flight IATA:CT1004
Pilot Number:042
Company ICAO:CAT
Aircraft Type:F100/A
PAX:36
Aircraft Registration:PFJ
Departing Airport: LEVC
Destination Airport: LXGB
Alternate Airport:LEMG
Online: VATSIM
Route:ASTRO B28 PIMOS
Flight Level:F230
No Slew and time accel
No pause
Crash detect
Detect pilot in Cockpit between each 30 and 45 minutes
09:50 Zero fuel Weight: 81825 Lbs, Fuel Weight: 22687 Lbs
09:50 VATSIM:LEVC 140930Z VRB02KT CAVOK 21/09 Q1020 NOSIG
09:50 VATSIM:LXGB 140850Z 08010KT 8000 HZ FEW011 SCT150 BKN200 17/15 Q1018 TEMPO SCT020
09:50 EASTER CHARTER
10:05 Parking Brakes off
10:14 Take-off
10:14 Take off Weight: 103834 Lbs
10:14 Wind: 075º @ 004 Knots Heading: 114º
10:14 POS N39º 29´ 21´´ W000º 28´ 52´´
10:14 Gear Up: 180 Knots
10:14 Flaps:1 at 180 Knots
10:15 Flaps:0 at 219 Knots
10:26 TOC
10:26 Fuel Weight: 20365 Lb
10:29 Wind:168º@030 Knots Heading: 228º Ground Speed: 425 Knots Altitude 23225 ft
10:44 Wind:084º@009 Knots Heading: 225º Ground Speed: 434 Knots Altitude 23136 ft
10:53 TOD
10:53 Fuel Weight: 17770 Lb
10:59 Wind:099º@016 Knots Heading: 209º Ground Speed: 294 Knots Altitude 13051 ft
11:00 Flaps:1 at 225 Knots
11:12 Flaps:2 at 176 Knots
11:12 Gear Down: 169 Knots
11:12 Flaps:3 at 170 Knots
11:13 Flaps:4 at 163 Knots
11:13 TouchDown:Rate -356 ft/min Speed: 123 Knots
11:14 Wind:070º@014 Knots Heading: 083º Ground Speed: 068 Knots Altitude 022 ft
11:14 VATSIM:LXGB 141050Z 07014KT 9999 FEW013 SCT160 BKN250 17/14 Q1017 NOSIG
11:14 Land
11:14 Wind:070º@014 Knots
11:14 Heading: 084º
11:14 Flight Duration: 01:00
11:14 Landing Weight: 98751 Lbs
11:14 POS N36º 09´ 11´´ W005º 20´ 41´´
11:16 Parking brakes on
11:16 Block to Block Duration: 01:11
11:16 Final Fuel: 16794 Lbls
11:16 Spent Fuel: 5892 Lbls
11:16 Flight Length: 302 NM
11:16 TOD Land Length: 53 NM

Exportar CSV

Powered by Drupal - Modified by Danger4k